sensor_id;sensor_type;location;lat;lon;timestamp;P1;durP1;ratioP1;P2;durP2;ratioP2
38715;SDS011;24833;49.324;8.694;2022-08-26T00:01:51;8.48;;;3.88;;
38715;SDS011;24833;49.324;8.694;2022-08-26T00:04:20;7.65;;;4.10;;
38715;SDS011;24833;49.324;8.694;2022-08-26T00:06:50;7.80;;;3.70;;
38715;SDS011;24833;49.324;8.694;2022-08-26T00:09:19;4.07;;;3.60;;
38715;SDS011;24833;49.324;8.694;2022-08-26T00:11:47;6.38;;;3.47;;
38715;SDS011;24833;49.324;8.694;2022-08-26T00:14:16;6.78;;;4.13;;
38715;SDS011;24833;49.324;8.694;2022-08-26T00:16:43;7.28;;;3.95;;
38715;SDS011;24833;49.324;8.694;2022-08-26T00:19:17;6.97;;;3.80;;
38715;SDS011;24833;49.324;8.694;2022-08-26T00:21:47;9.23;;;3.78;;
38715;SDS011;24833;49.324;8.694;2022-08-26T00:24:16;10.63;;;3.17;;
38715;SDS011;24833;49.324;8.694;2022-08-26T00:26:46;10.15;;;3.88;;
38715;SDS011;24833;49.324;8.694;2022-08-26T00:29:14;9.13;;;4.82;;
38715;SDS011;24833;49.324;8.694;2022-08-26T00:31:43;6.10;;;3.53;;
38715;SDS011;24833;49.324;8.694;2022-08-26T00:34:11;5.78;;;4.22;;
38715;SDS011;24833;49.324;8.694;2022-08-26T00:36:41;6.68;;;3.90;;
38715;SDS011;24833;49.324;8.694;2022-08-26T00:39:09;8.00;;;3.90;;
38715;SDS011;24833;49.324;8.694;2022-08-26T00:41:37;6.05;;;4.15;;
38715;SDS011;24833;49.324;8.694;2022-08-26T00:44:06;7.18;;;4.43;;
38715;SDS011;24833;49.324;8.694;2022-08-26T00:46:40;8.70;;;4.55;;
38715;SDS011;24833;49.324;8.694;2022-08-26T00:49:20;5.38;;;3.80;;
38715;SDS011;24833;49.324;8.694;2022-08-26T00:52:06;7.10;;;3.95;;
38715;SDS011;24833;49.324;8.694;2022-08-26T00:54:39;6.28;;;3.60;;
38715;SDS011;24833;49.324;8.694;2022-08-26T00:57:13;6.07;;;4.22;;
38715;SDS011;24833;49.324;8.694;2022-08-26T00:59:46;8.15;;;4.15;;
38715;SDS011;24833;49.324;8.694;2022-08-26T01:02:20;7.07;;;4.55;;
38715;SDS011;24833;49.324;8.694;2022-08-26T01:04:51;6.55;;;4.30;;
38715;SDS011;24833;49.324;8.694;2022-08-26T01:07:25;6.53;;;4.03;;
38715;SDS011;24833;49.324;8.694;2022-08-26T01:09:57;9.75;;;4.20;;
38715;SDS011;24833;49.324;8.694;2022-08-26T01:12:30;5.82;;;3.63;;
38715;SDS011;24833;49.324;8.694;2022-08-26T01:15:05;5.40;;;3.95;;
38715;SDS011;24833;49.324;8.694;2022-08-26T01:17:39;5.47;;;3.97;;
38715;SDS011;24833;49.324;8.694;2022-08-26T01:23:04;8.05;;;3.80;;
38715;SDS011;24833;49.324;8.694;2022-08-26T01:25:37;8.95;;;5.03;;
38715;SDS011;24833;49.324;8.694;2022-08-26T01:28:22;8.13;;;3.92;;
38715;SDS011;24833;49.324;8.694;2022-08-26T01:30:54;5.38;;;4.43;;
38715;SDS011;24833;49.324;8.694;2022-08-26T01:33:47;7.25;;;4.43;;
38715;SDS011;24833;49.324;8.694;2022-08-26T01:36:16;6.30;;;3.92;;
38715;SDS011;24833;49.324;8.694;2022-08-26T01:38:46;7.53;;;4.10;;
38715;SDS011;24833;49.324;8.694;2022-08-26T01:41:13;12.15;;;4.60;;
38715;SDS011;24833;49.324;8.694;2022-08-26T01:43:53;5.00;;;4.00;;
38715;SDS011;24833;49.324;8.694;2022-08-26T01:46:23;6.28;;;3.90;;
38715;SDS011;24833;49.324;8.694;2022-08-26T01:48:53;7.25;;;4.05;;
38715;SDS011;24833;49.324;8.694;2022-08-26T01:51:26;6.85;;;3.85;;
38715;SDS011;24833;49.324;8.694;2022-08-26T01:53:55;8.10;;;4.15;;
38715;SDS011;24833;49.324;8.694;2022-08-26T01:56:24;8.05;;;4.25;;
38715;SDS011;24833;49.324;8.694;2022-08-26T01:58:59;6.07;;;3.83;;
38715;SDS011;24833;49.324;8.694;2022-08-26T02:01:30;6.82;;;4.35;;
38715;SDS011;24833;49.324;8.694;2022-08-26T02:06:49;4.93;;;3.47;;
38715;SDS011;24833;49.324;8.694;2022-08-26T02:09:18;7.40;;;4.00;;
38715;SDS011;24833;49.324;8.694;2022-08-26T02:11:47;6.53;;;4.57;;
38715;SDS011;24833;49.324;8.694;2022-08-26T02:14:20;6.40;;;4.33;;
38715;SDS011;24833;49.324;8.694;2022-08-26T02:16:53;7.35;;;4.03;;
38715;SDS011;24833;49.324;8.694;2022-08-26T02:19:23;7.35;;;4.22;;
38715;SDS011;24833;49.324;8.694;2022-08-26T02:21:56;4.63;;;3.25;;
38715;SDS011;24833;49.324;8.694;2022-08-26T02:24:52;5.47;;;3.08;;
38715;SDS011;24833;49.324;8.694;2022-08-26T02:27:22;5.80;;;3.03;;
38715;SDS011;24833;49.324;8.694;2022-08-26T02:30:14;11.13;;;3.38;;
38715;SDS011;24833;49.324;8.694;2022-08-26T02:32:46;4.85;;;3.15;;
38715;SDS011;24833;49.324;8.694;2022-08-26T02:35:16;6.20;;;3.25;;
38715;SDS011;24833;49.324;8.694;2022-08-26T02:37:46;4.70;;;3.22;;
38715;SDS011;24833;49.324;8.694;2022-08-26T02:40:18;3.38;;;3.08;;
38715;SDS011;24833;49.324;8.694;2022-08-26T02:42:49;3.30;;;3.00;;
38715;SDS011;24833;49.324;8.694;2022-08-26T02:45:18;3.65;;;3.22;;
38715;SDS011;24833;49.324;8.694;2022-08-26T02:47:49;3.35;;;2.95;;
38715;SDS011;24833;49.324;8.694;2022-08-26T02:50:18;4.28;;;3.20;;
38715;SDS011;24833;49.324;8.694;2022-08-26T02:52:45;4.57;;;3.20;;
38715;SDS011;24833;49.324;8.694;2022-08-26T02:55:13;3.50;;;3.20;;
38715;SDS011;24833;49.324;8.694;2022-08-26T02:57:42;3.53;;;3.22;;
38715;SDS011;24833;49.324;8.694;2022-08-26T03:00:10;4.93;;;3.30;;
38715;SDS011;24833;49.324;8.694;2022-08-26T03:02:40;4.18;;;3.25;;
38715;SDS011;24833;49.324;8.694;2022-08-26T03:05:08;3.20;;;2.88;;
38715;SDS011;24833;49.324;8.694;2022-08-26T03:07:36;7.60;;;3.30;;
38715;SDS011;24833;49.324;8.694;2022-08-26T03:10:04;5.00;;;3.35;;
38715;SDS011;24833;49.324;8.694;2022-08-26T03:12:34;5.03;;;3.20;;
38715;SDS011;24833;49.324;8.694;2022-08-26T03:15:01;6.13;;;3.60;;
38715;SDS011;24833;49.324;8.694;2022-08-26T03:17:43;4.10;;;3.70;;
38715;SDS011;24833;49.324;8.694;2022-08-26T03:20:12;4.27;;;3.37;;
38715;SDS011;24833;49.324;8.694;2022-08-26T03:22:43;3.75;;;3.30;;
38715;SDS011;24833;49.324;8.694;2022-08-26T03:25:11;3.70;;;3.40;;
38715;SDS011;24833;49.324;8.694;2022-08-26T03:27:41;6.10;;;3.65;;
38715;SDS011;24833;49.324;8.694;2022-08-26T03:30:09;4.55;;;2.97;;
38715;SDS011;24833;49.324;8.694;2022-08-26T03:32:58;4.30;;;3.40;;
38715;SDS011;24833;49.324;8.694;2022-08-26T03:35:26;4.50;;;3.03;;
38715;SDS011;24833;49.324;8.694;2022-08-26T03:37:53;6.60;;;3.33;;
38715;SDS011;24833;49.324;8.694;2022-08-26T03:40:20;3.67;;;2.95;;
38715;SDS011;24833;49.324;8.694;2022-08-26T03:42:48;4.50;;;3.00;;
38715;SDS011;24833;49.324;8.694;2022-08-26T03:45:16;4.13;;;3.15;;
38715;SDS011;24833;49.324;8.694;2022-08-26T03:47:44;4.00;;;3.45;;
38715;SDS011;24833;49.324;8.694;2022-08-26T03:50:13;7.95;;;3.80;;
38715;SDS011;24833;49.324;8.694;2022-08-26T03:52:48;4.28;;;3.75;;
38715;SDS011;24833;49.324;8.694;2022-08-26T03:55:18;3.67;;;3.37;;
38715;SDS011;24833;49.324;8.694;2022-08-26T03:57:49;3.75;;;3.03;;
38715;SDS011;24833;49.324;8.694;2022-08-26T04:00:17;4.80;;;3.33;;
38715;SDS011;24833;49.324;8.694;2022-08-26T04:02:45;3.85;;;3.10;;
38715;SDS011;24833;49.324;8.694;2022-08-26T04:05:19;5.57;;;3.30;;
38715;SDS011;24833;49.324;8.694;2022-08-26T04:07:48;4.57;;;3.33;;
38715;SDS011;24833;49.324;8.694;2022-08-26T04:10:17;5.55;;;3.28;;
38715;SDS011;24833;49.324;8.694;2022-08-26T04:12:55;4.93;;;3.05;;
38715;SDS011;24833;49.324;8.694;2022-08-26T04:15:24;4.60;;;3.13;;
38715;SDS011;24833;49.324;8.694;2022-08-26T04:17:52;4.03;;;3.22;;
38715;SDS011;24833;49.324;8.694;2022-08-26T04:20:21;5.20;;;3.13;;
38715;SDS011;24833;49.324;8.694;2022-08-26T04:22:49;3.83;;;3.40;;
38715;SDS011;24833;49.324;8.694;2022-08-26T04:25:16;4.32;;;3.28;;
38715;SDS011;24833;49.324;8.694;2022-08-26T04:27:45;4.47;;;3.17;;
38715;SDS011;24833;49.324;8.694;2022-08-26T04:30:13;5.10;;;3.45;;
38715;SDS011;24833;49.324;8.694;2022-08-26T04:32:42;3.58;;;3.25;;
38715;SDS011;24833;49.324;8.694;2022-08-26T04:35:09;4.32;;;3.28;;
38715;SDS011;24833;49.324;8.694;2022-08-26T04:37:36;4.82;;;3.33;;
38715;SDS011;24833;49.324;8.694;2022-08-26T04:40:03;3.22;;;2.92;;
38715;SDS011;24833;49.324;8.694;2022-08-26T04:42:31;3.67;;;3.28;;
38715;SDS011;24833;49.324;8.694;2022-08-26T04:44:59;4.15;;;3.60;;
38715;SDS011;24833;49.324;8.694;2022-08-26T04:47:35;3.80;;;3.40;;
38715;SDS011;24833;49.324;8.694;2022-08-26T04:50:03;4.15;;;3.45;;
38715;SDS011;24833;49.324;8.694;2022-08-26T04:52:32;4.03;;;3.13;;
38715;SDS011;24833;49.324;8.694;2022-08-26T04:55:02;6.32;;;3.35;;
38715;SDS011;24833;49.324;8.694;2022-08-26T04:57:33;4.38;;;3.67;;
38715;SDS011;24833;49.324;8.694;2022-08-26T05:00:02;5.88;;;4.28;;
38715;SDS011;24833;49.324;8.694;2022-08-26T05:02:31;4.78;;;3.83;;
38715;SDS011;24833;49.324;8.694;2022-08-26T05:04:58;8.05;;;4.57;;
38715;SDS011;24833;49.324;8.694;2022-08-26T05:07:25;5.05;;;3.92;;
38715;SDS011;24833;49.324;8.694;2022-08-26T05:09:52;4.65;;;3.70;;
38715;SDS011;24833;49.324;8.694;2022-08-26T05:12:19;8.50;;;4.00;;
38715;SDS011;24833;49.324;8.694;2022-08-26T05:14:46;5.63;;;4.35;;
38715;SDS011;24833;49.324;8.694;2022-08-26T05:17:13;4.65;;;4.18;;
38715;SDS011;24833;49.324;8.694;2022-08-26T05:19:40;5.43;;;4.20;;
38715;SDS011;24833;49.324;8.694;2022-08-26T05:22:08;7.70;;;4.03;;
38715;SDS011;24833;49.324;8.694;2022-08-26T05:24:38;7.47;;;4.18;;
38715;SDS011;24833;49.324;8.694;2022-08-26T05:27:06;7.10;;;4.00;;
38715;SDS011;24833;49.324;8.694;2022-08-26T05:29:37;4.75;;;3.95;;
38715;SDS011;24833;49.324;8.694;2022-08-26T05:32:05;3.83;;;3.53;;
38715;SDS011;24833;49.324;8.694;2022-08-26T05:34:32;7.20;;;4.32;;
38715;SDS011;24833;49.324;8.694;2022-08-26T05:37:00;5.63;;;3.88;;
38715;SDS011;24833;49.324;8.694;2022-08-26T05:39:27;3.90;;;3.47;;
38715;SDS011;24833;49.324;8.694;2022-08-26T05:41:54;4.85;;;3.40;;
38715;SDS011;24833;49.324;8.694;2022-08-26T05:44:21;4.05;;;3.15;;
38715;SDS011;24833;49.324;8.694;2022-08-26T05:46:49;5.32;;;4.05;;
38715;SDS011;24833;49.324;8.694;2022-08-26T05:49:16;4.03;;;3.58;;
38715;SDS011;24833;49.324;8.694;2022-08-26T05:51:44;4.22;;;3.50;;
38715;SDS011;24833;49.324;8.694;2022-08-26T05:54:13;6.53;;;3.97;;
38715;SDS011;24833;49.324;8.694;2022-08-26T05:56:48;4.90;;;3.88;;
38715;SDS011;24833;49.324;8.694;2022-08-26T06:01:50;4.50;;;3.80;;
38715;SDS011;24833;49.324;8.694;2022-08-26T06:04:17;6.75;;;3.88;;
38715;SDS011;24833;49.324;8.694;2022-08-26T06:06:45;6.85;;;4.38;;
38715;SDS011;24833;49.324;8.694;2022-08-26T06:09:12;7.90;;;4.30;;
38715;SDS011;24833;49.324;8.694;2022-08-26T06:11:42;6.10;;;4.35;;
38715;SDS011;24833;49.324;8.694;2022-08-26T06:14:10;7.50;;;4.03;;
38715;SDS011;24833;49.324;8.694;2022-08-26T06:16:38;6.07;;;4.82;;
38715;SDS011;24833;49.324;8.694;2022-08-26T06:21:38;4.72;;;4.30;;
38715;SDS011;24833;49.324;8.694;2022-08-26T06:24:09;8.18;;;4.82;;
38715;SDS011;24833;49.324;8.694;2022-08-26T06:26:58;8.75;;;3.83;;
38715;SDS011;24833;49.324;8.694;2022-08-26T06:29:34;4.28;;;3.88;;
38715;SDS011;24833;49.324;8.694;2022-08-26T06:32:03;7.13;;;3.47;;
38715;SDS011;24833;49.324;8.694;2022-08-26T06:34:31;8.88;;;4.82;;
38715;SDS011;24833;49.324;8.694;2022-08-26T06:36:59;6.10;;;4.20;;
38715;SDS011;24833;49.324;8.694;2022-08-26T06:39:32;10.57;;;4.45;;
38715;SDS011;24833;49.324;8.694;2022-08-26T06:41:59;5.85;;;4.07;;
38715;SDS011;24833;49.324;8.694;2022-08-26T06:44:32;5.65;;;4.32;;
38715;SDS011;24833;49.324;8.694;2022-08-26T06:46:59;5.95;;;4.03;;
38715;SDS011;24833;49.324;8.694;2022-08-26T06:49:26;8.05;;;4.65;;
38715;SDS011;24833;49.324;8.694;2022-08-26T06:51:56;6.97;;;4.53;;
38715;SDS011;24833;49.324;8.694;2022-08-26T06:54:24;5.13;;;4.10;;
38715;SDS011;24833;49.324;8.694;2022-08-26T06:56:53;5.97;;;3.80;;
38715;SDS011;24833;49.324;8.694;2022-08-26T06:59:22;6.40;;;4.38;;
38715;SDS011;24833;49.324;8.694;2022-08-26T07:01:49;5.80;;;4.30;;
38715;SDS011;24833;49.324;8.694;2022-08-26T07:04:17;6.78;;;4.18;;
38715;SDS011;24833;49.324;8.694;2022-08-26T07:06:48;4.30;;;3.78;;
38715;SDS011;24833;49.324;8.694;2022-08-26T07:09:19;4.72;;;4.00;;
38715;SDS011;24833;49.324;8.694;2022-08-26T07:14:16;5.05;;;4.53;;
38715;SDS011;24833;49.324;8.694;2022-08-26T07:16:47;7.55;;;4.22;;
38715;SDS011;24833;49.324;8.694;2022-08-26T07:19:16;7.47;;;4.85;;
38715;SDS011;24833;49.324;8.694;2022-08-26T07:21:57;6.72;;;4.78;;
38715;SDS011;24833;49.324;8.694;2022-08-26T07:24:27;7.60;;;5.32;;
38715;SDS011;24833;49.324;8.694;2022-08-26T07:26:58;6.82;;;4.82;;
38715;SDS011;24833;49.324;8.694;2022-08-26T07:29:30;5.03;;;4.00;;
38715;SDS011;24833;49.324;8.694;2022-08-26T07:31:58;8.15;;;4.50;;
38715;SDS011;24833;49.324;8.694;2022-08-26T07:34:29;7.97;;;4.88;;
38715;SDS011;24833;49.324;8.694;2022-08-26T07:36:58;6.13;;;4.10;;
38715;SDS011;24833;49.324;8.694;2022-08-26T07:39:26;5.05;;;4.57;;
38715;SDS011;24833;49.324;8.694;2022-08-26T07:41:57;4.20;;;3.85;;
38715;SDS011;24833;49.324;8.694;2022-08-26T07:44:33;14.25;;;5.35;;
38715;SDS011;24833;49.324;8.694;2022-08-26T07:47:06;6.43;;;5.05;;
38715;SDS011;24833;49.324;8.694;2022-08-26T07:49:51;4.97;;;4.45;;
38715;SDS011;24833;49.324;8.694;2022-08-26T07:52:20;6.70;;;5.47;;
38715;SDS011;24833;49.324;8.694;2022-08-26T07:54:52;10.45;;;6.32;;
38715;SDS011;24833;49.324;8.694;2022-08-26T07:57:19;7.97;;;4.95;;
38715;SDS011;24833;49.324;8.694;2022-08-26T07:59:49;10.70;;;5.70;;
38715;SDS011;24833;49.324;8.694;2022-08-26T08:02:19;8.27;;;4.95;;
38715;SDS011;24833;49.324;8.694;2022-08-26T08:04:46;5.60;;;4.28;;
38715;SDS011;24833;49.324;8.694;2022-08-26T08:07:14;7.80;;;4.78;;
38715;SDS011;24833;49.324;8.694;2022-08-26T08:09:41;6.07;;;5.35;;
38715;SDS011;24833;49.324;8.694;2022-08-26T08:12:08;5.97;;;4.60;;
38715;SDS011;24833;49.324;8.694;2022-08-26T08:14:39;9.55;;;5.22;;
38715;SDS011;24833;49.324;8.694;2022-08-26T08:17:10;6.95;;;5.53;;
38715;SDS011;24833;49.324;8.694;2022-08-26T08:19:38;7.40;;;5.18;;
38715;SDS011;24833;49.324;8.694;2022-08-26T08:22:06;7.22;;;4.85;;
38715;SDS011;24833;49.324;8.694;2022-08-26T08:24:44;8.90;;;5.43;;
38715;SDS011;24833;49.324;8.694;2022-08-26T08:27:15;10.80;;;4.70;;
38715;SDS011;24833;49.324;8.694;2022-08-26T08:29:49;7.43;;;4.40;;
38715;SDS011;24833;49.324;8.694;2022-08-26T08:34:47;9.82;;;5.18;;
38715;SDS011;24833;49.324;8.694;2022-08-26T08:37:14;9.88;;;4.78;;
38715;SDS011;24833;49.324;8.694;2022-08-26T08:39:41;6.32;;;4.82;;
38715;SDS011;24833;49.324;8.694;2022-08-26T08:45:07;11.07;;;5.53;;
38715;SDS011;24833;49.324;8.694;2022-08-26T08:48:04;8.95;;;6.18;;
38715;SDS011;24833;49.324;8.694;2022-08-26T08:53:35;8.57;;;5.45;;
38715;SDS011;24833;49.324;8.694;2022-08-26T08:56:28;9.10;;;6.38;;
38715;SDS011;24833;49.324;8.694;2022-08-26T09:05:04;10.07;;;5.60;;
38715;SDS011;24833;49.324;8.694;2022-08-26T09:07:52;12.05;;;6.13;;
38715;SDS011;24833;49.324;8.694;2022-08-26T09:10:39;7.38;;;5.00;;
38715;SDS011;24833;49.324;8.694;2022-08-26T09:13:13;7.47;;;4.68;;
38715;SDS011;24833;49.324;8.694;2022-08-26T09:19:16;6.57;;;4.50;;
38715;SDS011;24833;49.324;8.694;2022-08-26T09:22:04;6.43;;;4.90;;
38715;SDS011;24833;49.324;8.694;2022-08-26T09:24:36;5.82;;;5.20;;
38715;SDS011;24833;49.324;8.694;2022-08-26T09:27:07;7.25;;;4.13;;
38715;SDS011;24833;49.324;8.694;2022-08-26T09:29:41;6.20;;;4.43;;
38715;SDS011;24833;49.324;8.694;2022-08-26T09:32:17;8.88;;;5.03;;
38715;SDS011;24833;49.324;8.694;2022-08-26T09:34:54;5.13;;;4.32;;
38715;SDS011;24833;49.324;8.694;2022-08-26T09:37:48;5.65;;;3.65;;
38715;SDS011;24833;49.324;8.694;2022-08-26T09:40:22;8.07;;;4.82;;
38715;SDS011;24833;49.324;8.694;2022-08-26T09:43:09;6.53;;;3.78;;
38715;SDS011;24833;49.324;8.694;2022-08-26T09:45:53;10.90;;;4.53;;
38715;SDS011;24833;49.324;8.694;2022-08-26T09:48:44;7.30;;;4.68;;
38715;SDS011;24833;49.324;8.694;2022-08-26T09:56:29;6.43;;;3.95;;
38715;SDS011;24833;49.324;8.694;2022-08-26T09:59:00;9.48;;;4.68;;
38715;SDS011;24833;49.324;8.694;2022-08-26T10:01:32;5.82;;;3.90;;
38715;SDS011;24833;49.324;8.694;2022-08-26T10:04:05;5.47;;;4.00;;
38715;SDS011;24833;49.324;8.694;2022-08-26T10:06:55;5.07;;;4.25;;
38715;SDS011;24833;49.324;8.694;2022-08-26T10:09:32;7.72;;;4.63;;
38715;SDS011;24833;49.324;8.694;2022-08-26T10:12:29;7.03;;;4.13;;
38715;SDS011;24833;49.324;8.694;2022-08-26T10:14:54;5.10;;;3.90;;
38715;SDS011;24833;49.324;8.694;2022-08-26T10:20:03;5.53;;;4.00;;
38715;SDS011;24833;49.324;8.694;2022-08-26T10:22:57;5.10;;;3.97;;
38715;SDS011;24833;49.324;8.694;2022-08-26T10:26:00;7.00;;;4.18;;
38715;SDS011;24833;49.324;8.694;2022-08-26T10:31:28;7.00;;;4.07;;
38715;SDS011;24833;49.324;8.694;2022-08-26T10:34:18;5.30;;;3.78;;
38715;SDS011;24833;49.324;8.694;2022-08-26T10:36:54;10.02;;;4.13;;
38715;SDS011;24833;49.324;8.694;2022-08-26T10:45:07;4.00;;;3.58;;
38715;SDS011;24833;49.324;8.694;2022-08-26T10:47:44;7.03;;;4.05;;
38715;SDS011;24833;49.324;8.694;2022-08-26T10:50:37;7.57;;;4.00;;
38715;SDS011;24833;49.324;8.694;2022-08-26T10:53:21;5.05;;;3.75;;
38715;SDS011;24833;49.324;8.694;2022-08-26T10:59:22;5.78;;;4.05;;
38715;SDS011;24833;49.324;8.694;2022-08-26T11:02:58;5.20;;;4.50;;
38715;SDS011;24833;49.324;8.694;2022-08-26T11:06:27;6.50;;;4.20;;
38715;SDS011;24833;49.324;8.694;2022-08-26T11:08:58;5.95;;;3.72;;
38715;SDS011;24833;49.324;8.694;2022-08-26T11:16:57;5.35;;;3.97;;
38715;SDS011;24833;49.324;8.694;2022-08-26T11:22:28;5.40;;;3.90;;
38715;SDS011;24833;49.324;8.694;2022-08-26T11:25:03;3.92;;;3.42;;
38715;SDS011;24833;49.324;8.694;2022-08-26T11:37:52;4.22;;;3.28;;
38715;SDS011;24833;49.324;8.694;2022-08-26T11:43:01;8.18;;;4.47;;
38715;SDS011;24833;49.324;8.694;2022-08-26T11:46:05;6.40;;;3.90;;
38715;SDS011;24833;49.324;8.694;2022-08-26T11:48:40;5.70;;;3.97;;
38715;SDS011;24833;49.324;8.694;2022-08-26T11:51:10;6.03;;;3.10;;
38715;SDS011;24833;49.324;8.694;2022-08-26T11:53:45;8.15;;;3.63;;
38715;SDS011;24833;49.324;8.694;2022-08-26T11:58:57;3.58;;;3.13;;
38715;SDS011;24833;49.324;8.694;2022-08-26T12:01:33;7.93;;;3.90;;
38715;SDS011;24833;49.324;8.694;2022-08-26T12:04:04;4.50;;;3.05;;
38715;SDS011;24833;49.324;8.694;2022-08-26T12:06:37;5.93;;;3.40;;
38715;SDS011;24833;49.324;8.694;2022-08-26T12:09:34;4.55;;;3.40;;
38715;SDS011;24833;49.324;8.694;2022-08-26T12:12:09;7.68;;;3.60;;
38715;SDS011;24833;49.324;8.694;2022-08-26T12:15:12;3.67;;;2.97;;
38715;SDS011;24833;49.324;8.694;2022-08-26T12:17:47;3.70;;;2.60;;
38715;SDS011;24833;49.324;8.694;2022-08-26T12:20:36;2.40;;;2.20;;
38715;SDS011;24833;49.324;8.694;2022-08-26T12:23:41;2.90;;;2.60;;
38715;SDS011;24833;49.324;8.694;2022-08-26T12:26:49;3.90;;;2.97;;
38715;SDS011;24833;49.324;8.694;2022-08-26T12:29:12;7.15;;;4.00;;
38715;SDS011;24833;49.324;8.694;2022-08-26T12:32:16;6.60;;;4.47;;
38715;SDS011;24833;49.324;8.694;2022-08-26T12:34:44;5.72;;;3.70;;
38715;SDS011;24833;49.324;8.694;2022-08-26T12:37:14;7.88;;;4.07;;
38715;SDS011;24833;49.324;8.694;2022-08-26T12:39:44;5.43;;;3.58;;
38715;SDS011;24833;49.324;8.694;2022-08-26T12:44:42;8.38;;;4.03;;
38715;SDS011;24833;49.324;8.694;2022-08-26T12:47:35;10.43;;;4.00;;
38715;SDS011;24833;49.324;8.694;2022-08-26T12:50:11;6.93;;;3.83;;
38715;SDS011;24833;49.324;8.694;2022-08-26T12:52:59;3.97;;;3.47;;
38715;SDS011;24833;49.324;8.694;2022-08-26T12:55:45;4.93;;;3.78;;
38715;SDS011;24833;49.324;8.694;2022-08-26T12:58:31;3.55;;;2.95;;
38715;SDS011;24833;49.324;8.694;2022-08-26T13:06:22;5.45;;;3.05;;
38715;SDS011;24833;49.324;8.694;2022-08-26T13:14:23;5.53;;;3.28;;
38715;SDS011;24833;49.324;8.694;2022-08-26T13:16:50;5.55;;;3.10;;
38715;SDS011;24833;49.324;8.694;2022-08-26T13:19:19;3.67;;;2.83;;
38715;SDS011;24833;49.324;8.694;2022-08-26T13:21:57;5.93;;;3.75;;
38715;SDS011;24833;49.324;8.694;2022-08-26T13:24:36;3.97;;;2.92;;
38715;SDS011;24833;49.324;8.694;2022-08-26T13:27:08;5.70;;;2.97;;
38715;SDS011;24833;49.324;8.694;2022-08-26T13:29:39;4.88;;;3.17;;
38715;SDS011;24833;49.324;8.694;2022-08-26T13:32:07;4.82;;;3.47;;
38715;SDS011;24833;49.324;8.694;2022-08-26T13:34:34;6.25;;;3.60;;
38715;SDS011;24833;49.324;8.694;2022-08-26T13:37:03;4.70;;;3.30;;
38715;SDS011;24833;49.324;8.694;2022-08-26T13:39:31;5.55;;;3.60;;
38715;SDS011;24833;49.324;8.694;2022-08-26T13:41:58;5.57;;;3.53;;
38715;SDS011;24833;49.324;8.694;2022-08-26T13:44:25;6.05;;;3.30;;
38715;SDS011;24833;49.324;8.694;2022-08-26T13:46:53;5.18;;;3.33;;
38715;SDS011;24833;49.324;8.694;2022-08-26T13:49:20;5.20;;;3.20;;
38715;SDS011;24833;49.324;8.694;2022-08-26T13:51:47;6.65;;;3.80;;
38715;SDS011;24833;49.324;8.694;2022-08-26T13:54:14;3.72;;;3.03;;
38715;SDS011;24833;49.324;8.694;2022-08-26T13:56:41;5.00;;;3.40;;
38715;SDS011;24833;49.324;8.694;2022-08-26T13:59:08;4.60;;;3.00;;
38715;SDS011;24833;49.324;8.694;2022-08-26T14:01:36;6.38;;;3.30;;
38715;SDS011;24833;49.324;8.694;2022-08-26T14:04:03;3.00;;;2.70;;
38715;SDS011;24833;49.324;8.694;2022-08-26T14:06:30;4.40;;;3.08;;
38715;SDS011;24833;49.324;8.694;2022-08-26T14:08:57;4.10;;;3.55;;
38715;SDS011;24833;49.324;8.694;2022-08-26T14:11:25;3.08;;;2.78;;
38715;SDS011;24833;49.324;8.694;2022-08-26T14:13:52;3.67;;;2.97;;
38715;SDS011;24833;49.324;8.694;2022-08-26T14:16:23;3.08;;;2.78;;
38715;SDS011;24833;49.324;8.694;2022-08-26T14:18:59;4.97;;;3.60;;
38715;SDS011;24833;49.324;8.694;2022-08-26T14:21:28;4.13;;;3.10;;
38715;SDS011;24833;49.324;8.694;2022-08-26T14:23:57;4.82;;;2.92;;
38715;SDS011;24833;49.324;8.694;2022-08-26T14:26:26;5.00;;;2.88;;
38715;SDS011;24833;49.324;8.694;2022-08-26T14:28:58;5.50;;;3.05;;
38715;SDS011;24833;49.324;8.694;2022-08-26T14:31:29;5.13;;;3.05;;
38715;SDS011;24833;49.324;8.694;2022-08-26T14:33:59;3.38;;;2.75;;
38715;SDS011;24833;49.324;8.694;2022-08-26T14:36:30;4.65;;;2.92;;
38715;SDS011;24833;49.324;8.694;2022-08-26T14:39:04;3.80;;;2.72;;
38715;SDS011;24833;49.324;8.694;2022-08-26T14:41:43;3.10;;;2.50;;
38715;SDS011;24833;49.324;8.694;2022-08-26T14:44:20;2.75;;;2.50;;
38715;SDS011;24833;49.324;8.694;2022-08-26T14:46:59;3.35;;;2.47;;
38715;SDS011;24833;49.324;8.694;2022-08-26T14:49:29;4.57;;;3.17;;
38715;SDS011;24833;49.324;8.694;2022-08-26T14:51:56;3.25;;;2.95;;
38715;SDS011;24833;49.324;8.694;2022-08-26T14:54:23;3.17;;;2.40;;
38715;SDS011;24833;49.324;8.694;2022-08-26T14:56:52;3.17;;;2.70;;
38715;SDS011;24833;49.324;8.694;2022-08-26T14:59:26;6.22;;;3.78;;
38715;SDS011;24833;49.324;8.694;2022-08-26T15:02:03;3.42;;;3.10;;
38715;SDS011;24833;49.324;8.694;2022-08-26T15:04:33;6.20;;;3.40;;
38715;SDS011;24833;49.324;8.694;2022-08-26T15:07:00;4.22;;;3.08;;
38715;SDS011;24833;49.324;8.694;2022-08-26T15:09:30;4.50;;;3.45;;
38715;SDS011;24833;49.324;8.694;2022-08-26T15:12:00;4.55;;;2.95;;
38715;SDS011;24833;49.324;8.694;2022-08-26T15:14:27;3.63;;;3.33;;
38715;SDS011;24833;49.324;8.694;2022-08-26T15:16:58;5.10;;;3.30;;
38715;SDS011;24833;49.324;8.694;2022-08-26T15:19:25;5.28;;;3.72;;
38715;SDS011;24833;49.324;8.694;2022-08-26T15:21:53;3.55;;;3.20;;
38715;SDS011;24833;49.324;8.694;2022-08-26T15:24:20;7.07;;;3.20;;
38715;SDS011;24833;49.324;8.694;2022-08-26T15:26:50;4.65;;;3.28;;
38715;SDS011;24833;49.324;8.694;2022-08-26T15:29:19;3.50;;;3.13;;
38715;SDS011;24833;49.324;8.694;2022-08-26T15:31:49;10.50;;;4.70;;
38715;SDS011;24833;49.324;8.694;2022-08-26T15:34:16;11.68;;;5.65;;
38715;SDS011;24833;49.324;8.694;2022-08-26T15:36:44;14.73;;;5.03;;
38715;SDS011;24833;49.324;8.694;2022-08-26T15:39:12;8.75;;;4.72;;
38715;SDS011;24833;49.324;8.694;2022-08-26T15:41:42;9.52;;;5.22;;
38715;SDS011;24833;49.324;8.694;2022-08-26T15:44:09;9.55;;;5.18;;
38715;SDS011;24833;49.324;8.694;2022-08-26T15:46:39;8.57;;;4.33;;
38715;SDS011;24833;49.324;8.694;2022-08-26T15:49:06;6.65;;;2.90;;
38715;SDS011;24833;49.324;8.694;2022-08-26T15:51:42;5.60;;;3.63;;
38715;SDS011;24833;49.324;8.694;2022-08-26T15:54:11;4.95;;;3.45;;
38715;SDS011;24833;49.324;8.694;2022-08-26T15:56:42;6.35;;;3.78;;
38715;SDS011;24833;49.324;8.694;2022-08-26T15:59:09;4.40;;;2.90;;
38715;SDS011;24833;49.324;8.694;2022-08-26T16:01:37;6.13;;;3.35;;
38715;SDS011;24833;49.324;8.694;2022-08-26T16:04:05;9.05;;;5.20;;
38715;SDS011;24833;49.324;8.694;2022-08-26T16:06:33;8.02;;;4.90;;
38715;SDS011;24833;49.324;8.694;2022-08-26T16:09:04;5.85;;;3.80;;
38715;SDS011;24833;49.324;8.694;2022-08-26T16:11:33;10.52;;;6.60;;
38715;SDS011;24833;49.324;8.694;2022-08-26T16:14:01;9.93;;;5.68;;
38715;SDS011;24833;49.324;8.694;2022-08-26T16:16:30;9.32;;;6.53;;
38715;SDS011;24833;49.324;8.694;2022-08-26T16:18:57;12.45;;;7.93;;
38715;SDS011;24833;49.324;8.694;2022-08-26T16:21:29;9.85;;;6.88;;
38715;SDS011;24833;49.324;8.694;2022-08-26T16:23:56;10.50;;;7.10;;
38715;SDS011;24833;49.324;8.694;2022-08-26T16:26:24;12.23;;;8.45;;
38715;SDS011;24833;49.324;8.694;2022-08-26T16:28:59;9.52;;;8.40;;
38715;SDS011;24833;49.324;8.694;2022-08-26T16:31:27;10.85;;;8.10;;
38715;SDS011;24833;49.324;8.694;2022-08-26T16:33:55;13.57;;;9.77;;
38715;SDS011;24833;49.324;8.694;2022-08-26T16:36:21;10.43;;;8.57;;
38715;SDS011;24833;49.324;8.694;2022-08-26T16:38:49;17.63;;;9.90;;
38715;SDS011;24833;49.324;8.694;2022-08-26T16:41:22;11.13;;;8.10;;
38715;SDS011;24833;49.324;8.694;2022-08-26T16:43:51;11.55;;;10.30;;
38715;SDS011;24833;49.324;8.694;2022-08-26T16:46:19;13.98;;;9.07;;